Time;durP1;ratioP1;P1;durP2;ratioP2;P2;SDS_P1;SDS_P2;PMS_P1;PMS_P2;Temp;Humidity;BMP_temperature;BMP_pressure;BME280_temperature;BME280_humidity;BME280_pressure;Samples;Min_cycle;Max_cycle;Signal;HPM_P1;HPM_P2
2023/01/28 00:02:41;;;;;;;9.32;5.13;;;;;;;;;;5007942;28;20053;-75
2023/01/28 00:05:28;;;;;;;11.20;5.03;;;;;;;;;;4990739;28;20035;-74
2023/01/28 00:08:13;;;;;;;8.23;4.80;;;;;;;;;;5007929;28;20547;-74
2023/01/28 00:10:59;;;;;;;8.95;5.30;;;;;;;;;;5021576;28;20096;-74
2023/01/28 00:13:45;;;;;;;9.18;4.53;;;;;;;;;;5015295;28;20128;-74
2023/01/28 00:16:30;;;;;;;12.20;4.78;;;;;;;;;;5003178;28;20021;-68
2023/01/28 00:19:15;;;;;;;8.43;4.90;;;;;;;;;;5006580;28;20418;-69
2023/01/28 00:22:01;;;;;;;8.88;4.50;;;;;;;;;;5016122;28;20461;-68
2023/01/28 00:24:46;;;;;;;10.57;5.30;;;;;;;;;;5012872;28;20490;-65
2023/01/28 00:27:31;;;;;;;8.57;4.88;;;;;;;;;;5029059;28;20024;-69
2023/01/28 00:30:18;;;;;;;8.95;4.80;;;;;;;;;;5017028;28;20108;-73
2023/01/28 00:33:03;;;;;;;9.38;5.10;;;;;;;;;;5016223;28;20029;-69
2023/01/28 00:35:59;;;;;;;9.25;4.80;;;;;;;;;;4997037;28;20429;-69
2023/01/28 00:38:48;;;;;;;8.25;4.35;;;;;;;;;;4981180;28;20072;-68
2023/01/28 00:41:33;;;;;;;9.10;4.97;;;;;;;;;;4987403;28;21191;-70
2023/01/28 00:44:19;;;;;;;9.88;4.55;;;;;;;;;;4993940;28;20030;-71
2023/01/28 00:47:04;;;;;;;8.77;5.13;;;;;;;;;;4984927;28;20062;-68
2023/01/28 00:49:49;;;;;;;9.18;5.07;;;;;;;;;;4988068;28;20599;-69
2023/01/28 00:52:34;;;;;;;9.60;4.68;;;;;;;;;;5005075;28;20385;-75
2023/01/28 00:55:20;;;;;;;8.70;4.57;;;;;;;;;;4993198;28;20029;-76
2023/01/28 00:58:05;;;;;;;7.30;4.15;;;;;;;;;;4975398;28;20070;-74
2023/01/28 01:00:51;;;;;;;8.52;4.75;;;;;;;;;;4980226;28;20030;-75
2023/01/28 01:03:36;;;;;;;8.70;4.45;;;;;;;;;;4987253;28;20014;-74
2023/01/28 01:06:22;;;;;;;8.70;4.15;;;;;;;;;;5000757;28;20026;-74
2023/01/28 01:09:09;;;;;;;8.45;4.82;;;;;;;;;;4994505;28;20493;-69
2023/01/28 01:11:55;;;;;;;9.23;4.30;;;;;;;;;;4990288;28;20381;-71
2023/01/28 01:14:40;;;;;;;9.10;4.43;;;;;;;;;;4987433;28;20022;-69
2023/01/28 01:17:28;;;;;;;8.60;4.60;;;;;;;;;;4985662;28;20121;-72
2023/01/28 01:20:15;;;;;;;9.20;4.80;;;;;;;;;;4983265;28;20624;-70
2023/01/28 01:23:01;;;;;;;8.00;4.13;;;;;;;;;;4987496;28;20054;-68
2023/01/28 01:25:46;;;;;;;9.15;4.60;;;;;;;;;;4982283;28;20030;-68
2023/01/28 01:28:32;;;;;;;7.32;4.07;;;;;;;;;;4987819;28;20042;-67
2023/01/28 01:31:18;;;;;;;7.43;4.53;;;;;;;;;;4985094;28;20105;-70
2023/01/28 01:34:04;;;;;;;8.65;5.20;;;;;;;;;;4996232;28;20115;-70
2023/01/28 01:36:49;;;;;;;7.38;3.80;;;;;;;;;;5029455;28;20021;-70
2023/01/28 01:39:34;;;;;;;9.35;5.75;;;;;;;;;;5010167;28;20033;-68
2023/01/28 01:42:20;;;;;;;7.55;4.55;;;;;;;;;;5013527;28;20484;-68
2023/01/28 01:45:07;;;;;;;9.48;4.47;;;;;;;;;;5015681;28;20547;-67
2023/01/28 01:48:02;;;;;;;8.45;4.32;;;;;;;;;;5009195;28;21045;-69
2023/01/28 01:50:55;;;;;;;9.27;5.05;;;;;;;;;;5008013;28;20459;-67
2023/01/28 01:53:45;;;;;;;8.07;4.38;;;;;;;;;;5017313;28;20718;-65
2023/01/28 01:56:34;;;;;;;8.45;4.22;;;;;;;;;;5009844;28;20075;-66
2023/01/28 01:59:24;;;;;;;7.90;4.13;;;;;;;;;;5010521;28;20048;-67
2023/01/28 02:02:10;;;;;;;7.25;4.03;;;;;;;;;;5019531;28;20037;-74
2023/01/28 02:04:55;;;;;;;8.00;4.38;;;;;;;;;;5013142;28;20041;-68
2023/01/28 02:07:41;;;;;;;7.38;4.25;;;;;;;;;;5018738;28;20773;-66
2023/01/28 02:10:27;;;;;;;8.90;4.38;;;;;;;;;;5024798;28;20021;-66
2023/01/28 02:13:13;;;;;;;7.82;4.28;;;;;;;;;;5015557;28;20146;-67
2023/01/28 02:15:59;;;;;;;8.73;4.50;;;;;;;;;;5006836;28;20033;-66
2023/01/28 02:18:44;;;;;;;9.05;4.45;;;;;;;;;;5007106;28;20191;-67
2023/01/28 02:21:48;;;;;;;7.38;3.88;;;;;;;;;;5010246;28;20052;-75
2023/01/28 02:24:58;;;;;;;9.10;4.38;;;;;;;;;;5008259;28;20098;-72
2023/01/28 02:27:56;;;;;;;10.10;4.32;;;;;;;;;;5018452;28;20455;-73
2023/01/28 02:30:47;;;;;;;8.10;4.70;;;;;;;;;;5011035;28;20033;-73
2023/01/28 02:33:55;;;;;;;8.48;4.03;;;;;;;;;;5009625;28;20029;-71
2023/01/28 02:36:42;;;;;;;7.45;3.97;;;;;;;;;;5009051;28;20040;-74
2023/01/28 02:39:30;;;;;;;8.63;3.90;;;;;;;;;;5013342;28;20229;-74
2023/01/28 02:42:36;;;;;;;10.35;4.32;;;;;;;;;;5015031;28;20032;-68
2023/01/28 02:47:56;;;;;;;8.30;4.18;;;;;;;;;;5028034;28;20359;-67
2023/01/28 02:48:36;;;;;;;9.80;4.43;;;;;;;;;;5037375;28;20029;-66
2023/01/28 02:51:40;;;;;;;6.90;4.30;;;;;;;;;;5025133;28;20076;-68
2023/01/28 02:54:31;;;;;;;7.35;4.07;;;;;;;;;;5035474;28;20029;-70
2023/01/28 02:57:22;;;;;;;5.45;3.13;;;;;;;;;;5002083;28;20057;-74
2023/01/28 03:00:15;;;;;;;7.82;3.92;;;;;;;;;;5036583;28;20072;-75
2023/01/28 03:03:10;;;;;;;7.60;4.05;;;;;;;;;;5014573;28;20029;-73
2023/01/28 03:06:08;;;;;;;7.82;4.00;;;;;;;;;;5011112;28;20503;-72
2023/01/28 03:37:14;;;;;;;9.82;5.00;;;;;;;;;;5023255;28;20024;-69
2023/01/28 03:40:06;;;;;;;12.43;6.05;;;;;;;;;;5013044;28;20041;-68
2023/01/28 03:42:52;;;;;;;9.48;5.72;;;;;;;;;;5016924;28;20495;-68
2023/01/28 03:45:38;;;;;;;9.65;5.63;;;;;;;;;;4999725;28;20590;-68
2023/01/28 03:48:24;;;;;;;11.20;5.60;;;;;;;;;;5012953;28;20052;-68
2023/01/28 03:51:09;;;;;;;10.38;5.68;;;;;;;;;;5014997;28;20025;-68
2023/01/28 03:53:54;;;;;;;9.20;5.55;;;;;;;;;;5004580;28;20034;-67
2023/01/28 03:56:40;;;;;;;8.98;5.43;;;;;;;;;;5008453;28;20489;-73
2023/01/28 03:59:25;;;;;;;9.73;6.15;;;;;;;;;;5016791;28;20052;-73
2023/01/28 04:02:11;;;;;;;12.63;6.70;;;;;;;;;;5014012;28;20061;-73
2023/01/28 04:04:57;;;;;;;11.88;5.95;;;;;;;;;;5010126;28;20029;-72
2023/01/28 04:07:43;;;;;;;8.45;4.97;;;;;;;;;;5012997;28;20144;-74
2023/01/28 04:10:28;;;;;;;9.40;5.28;;;;;;;;;;5030158;28;20024;-71
2023/01/28 04:13:13;;;;;;;11.73;6.38;;;;;;;;;;5014949;28;20475;-68
2023/01/28 04:16:02;;;;;;;10.98;5.97;;;;;;;;;;5032938;28;20284;-69
2023/01/28 04:18:47;;;;;;;10.45;5.93;;;;;;;;;;5024645;28;20021;-69
2023/01/28 04:21:32;;;;;;;9.30;5.53;;;;;;;;;;5017660;28;20035;-69
2023/01/28 04:24:17;;;;;;;10.05;5.82;;;;;;;;;;5009171;28;20030;-68
2023/01/28 04:27:03;;;;;;;10.10;5.93;;;;;;;;;;5007429;28;20025;-69
2023/01/28 04:29:48;;;;;;;8.00;5.18;;;;;;;;;;5009504;28;20035;-71
2023/01/28 04:32:33;;;;;;;9.30;5.63;;;;;;;;;;5022300;28;20026;-72
2023/01/28 04:35:18;;;;;;;10.63;5.90;;;;;;;;;;4996177;28;20049;-73
2023/01/28 04:38:04;;;;;;;11.50;6.18;;;;;;;;;;5010370;28;20041;-72
2023/01/28 04:40:53;;;;;;;12.32;6.25;;;;;;;;;;5010480;28;20195;-72
2023/01/28 04:43:38;;;;;;;10.27;6.07;;;;;;;;;;5011801;28;20029;-71
2023/01/28 04:46:23;;;;;;;12.02;7.13;;;;;;;;;;5011823;28;20072;-72
2023/01/28 04:49:08;;;;;;;12.15;7.00;;;;;;;;;;5015849;28;20187;-71
2023/01/28 04:51:55;;;;;;;12.27;6.85;;;;;;;;;;5015696;28;20050;-72
2023/01/28 04:54:40;;;;;;;11.48;6.95;;;;;;;;;;5010370;28;20040;-74
2023/01/28 04:57:25;;;;;;;11.35;7.07;;;;;;;;;;5009903;28;20013;-75
2023/01/28 05:00:10;;;;;;;11.15;6.47;;;;;;;;;;4998299;28;20044;-73
2023/01/28 05:02:56;;;;;;;12.27;5.95;;;;;;;;;;5006650;28;20025;-72
2023/01/28 05:05:41;;;;;;;11.15;6.20;;;;;;;;;;5010448;28;20033;-67
2023/01/28 05:08:26;;;;;;;11.60;6.28;;;;;;;;;;4997166;28;20041;-71
2023/01/28 05:11:12;;;;;;;11.73;6.53;;;;;;;;;;5009306;28;20490;-72
2023/01/28 05:13:57;;;;;;;12.13;6.68;;;;;;;;;;5007722;28;20659;-71
2023/01/28 05:16:42;;;;;;;10.63;5.30;;;;;;;;;;5011792;28;20107;-71
2023/01/28 05:19:28;;;;;;;10.98;6.32;;;;;;;;;;5021675;28;20029;-73
2023/01/28 05:22:13;;;;;;;10.93;7.20;;;;;;;;;;5012707;28;20100;-72
2023/01/28 05:24:58;;;;;;;13.70;6.82;;;;;;;;;;5009569;28;20026;-71
2023/01/28 05:27:48;;;;;;;11.15;6.30;;;;;;;;;;5014471;28;20037;-73
2023/01/28 05:30:33;;;;;;;;;;;;;;;;;;5009019;28;20033;-74
2023/01/28 05:33:18;;;;;;;10.48;6.05;;;;;;;;;;5008520;28;19939;-77
2023/01/28 05:36:04;;;;;;;10.80;5.97;;;;;;;;;;5012906;28;20045;-73
2023/01/28 05:38:49;;;;;;;10.68;6.57;;;;;;;;;;5008946;28;20116;-72
2023/01/28 05:41:34;;;;;;;12.02;6.22;;;;;;;;;;5010742;28;20030;-74
2023/01/28 05:44:20;;;;;;;12.15;6.43;;;;;;;;;;5011479;28;20470;-72
2023/01/28 05:47:05;;;;;;;11.25;6.65;;;;;;;;;;5011741;28;20581;-67
2023/01/28 05:49:50;;;;;;;12.73;6.68;;;;;;;;;;5012499;28;21580;-66
2023/01/28 05:52:35;;;;;;;10.25;6.00;;;;;;;;;;5024629;28;20083;-67
2023/01/28 05:55:20;;;;;;;12.07;6.53;;;;;;;;;;5011398;28;20513;-67
2023/01/28 05:58:06;;;;;;;9.80;5.80;;;;;;;;;;5025630;28;20029;-69
2023/01/28 06:00:53;;;;;;;10.63;6.38;;;;;;;;;;5012521;28;20029;-74
2023/01/28 06:03:38;;;;;;;11.25;7.30;;;;;;;;;;5025713;28;20112;-73
2023/01/28 06:06:23;;;;;;;12.23;6.35;;;;;;;;;;5000824;28;20380;-72
2023/01/28 06:09:09;;;;;;;12.60;7.03;;;;;;;;;;5007011;28;20055;-73
2023/01/28 06:11:54;;;;;;;11.20;6.30;;;;;;;;;;5007780;28;20060;-73
2023/01/28 06:14:39;;;;;;;14.45;7.05;;;;;;;;;;5008535;28;20017;-76
2023/01/28 06:17:24;;;;;;;11.63;6.95;;;;;;;;;;5011250;28;20030;-75
2023/01/28 06:20:09;;;;;;;12.90;7.03;;;;;;;;;;5016597;28;20338;-76
2023/01/28 06:22:55;;;;;;;10.60;6.25;;;;;;;;;;5020438;28;20009;-68
2023/01/28 06:25:40;;;;;;;11.60;6.22;;;;;;;;;;5017529;28;20483;-67
2023/01/28 06:28:25;;;;;;;11.20;6.30;;;;;;;;;;5015478;28;20158;-68
2023/01/28 06:31:10;;;;;;;10.70;6.20;;;;;;;;;;5016799;28;20037;-68
2023/01/28 06:33:56;;;;;;;13.95;7.00;;;;;;;;;;5014891;28;20579;-67
2023/01/28 06:36:41;;;;;;;10.48;6.35;;;;;;;;;;5017580;28;20485;-68
2023/01/28 06:39:30;;;;;;;10.15;5.60;;;;;;;;;;5011846;28;20055;-68
2023/01/28 06:42:15;;;;;;;12.63;6.65;;;;;;;;;;5035421;22;20072;-75
2023/01/28 06:45:01;;;;;;;13.77;6.75;;;;;;;;;;5017892;28;20038;-74
2023/01/28 06:47:46;;;;;;;11.40;6.70;;;;;;;;;;5033597;28;20041;-77
2023/01/28 06:50:31;;;;;;;11.68;6.43;;;;;;;;;;5041576;28;20592;-77
2023/01/28 06:53:17;;;;;;;12.73;6.78;;;;;;;;;;5021439;28;20472;-74
2023/01/28 06:56:02;;;;;;;13.60;6.85;;;;;;;;;;5030491;28;20029;-77
2023/01/28 06:58:47;;;;;;;11.10;6.43;;;;;;;;;;5023753;28;20072;-78
2023/01/28 07:01:33;;;;;;;12.55;6.70;;;;;;;;;;5025898;28;20334;-75
2023/01/28 07:04:18;;;;;;;12.73;6.75;;;;;;;;;;5008641;28;20033;-73
2023/01/28 07:07:03;;;;;;;12.48;6.80;;;;;;;;;;5011604;28;20101;-76
2023/01/28 07:09:48;;;;;;;11.05;6.43;;;;;;;;;;5039068;28;20048;-74
2023/01/28 07:12:34;;;;;;;10.55;6.28;;;;;;;;;;5024584;28;20033;-73
2023/01/28 07:15:22;;;;;;;12.07;7.63;;;;;;;;;;5005310;28;20044;-77
2023/01/28 07:18:07;;;;;;;12.48;6.90;;;;;;;;;;5034588;28;20027;-75
2023/01/28 07:20:52;;;;;;;13.70;7.72;;;;;;;;;;5026869;28;20124;-76
2023/01/28 07:23:38;;;;;;;12.75;7.65;;;;;;;;;;5042114;28;20021;-75
2023/01/28 07:26:24;;;;;;;11.48;5.97;;;;;;;;;;5011193;28;20079;-76
2023/01/28 07:29:09;;;;;;;13.30;6.53;;;;;;;;;;5032007;28;20045;-78
2023/01/28 07:31:54;;;;;;;12.07;7.40;;;;;;;;;;5014220;28;20017;-76
2023/01/28 07:34:41;;;;;;;11.90;6.50;;;;;;;;;;5020752;28;20030;-74
2023/01/28 07:37:27;;;;;;;11.25;6.47;;;;;;;;;;5025590;28;20033;-74
2023/01/28 07:40:12;;;;;;;14.50;7.15;;;;;;;;;;5020580;28;20084;-74
2023/01/28 07:42:57;;;;;;;12.00;7.13;;;;;;;;;;5016958;28;20496;-76
2023/01/28 07:45:42;;;;;;;13.63;8.52;;;;;;;;;;5008980;28;20091;-76
2023/01/28 07:48:28;;;;;;;13.95;7.78;;;;;;;;;;5024525;28;20369;-76
2023/01/28 07:51:13;;;;;;;12.95;7.45;;;;;;;;;;5025542;28;20125;-74
2023/01/28 07:53:58;;;;;;;12.60;7.32;;;;;;;;;;5031348;28;20696;-74
2023/01/28 07:56:44;;;;;;;14.13;7.53;;;;;;;;;;5019691;28;20040;-76
2023/01/28 07:59:29;;;;;;;14.15;8.00;;;;;;;;;;5048924;28;20029;-77
2023/01/28 08:02:14;;;;;;;13.77;7.07;;;;;;;;;;5024078;28;20033;-77
2023/01/28 08:05:00;;;;;;;13.00;7.65;;;;;;;;;;5010587;28;20021;-76
2023/01/28 08:07:47;;;;;;;15.77;9.30;;;;;;;;;;5026757;28;20057;-70
2023/01/28 08:10:32;;;;;;;14.95;8.40;;;;;;;;;;5024362;28;20148;-70
2023/01/28 08:13:18;;;;;;;13.10;7.80;;;;;;;;;;5026765;28;20042;-70
2023/01/28 08:16:03;;;;;;;12.57;7.63;;;;;;;;;;5026981;28;20053;-76
2023/01/28 08:18:49;;;;;;;12.15;7.40;;;;;;;;;;5021781;28;20562;-74
2023/01/28 08:21:34;;;;;;;14.15;8.63;;;;;;;;;;5024040;28;20033;-75
2023/01/28 08:24:19;;;;;;;13.75;7.30;;;;;;;;;;5020001;28;20022;-75
2023/01/28 08:27:04;;;;;;;15.43;7.65;;;;;;;;;;5019886;28;20030;-78
2023/01/28 08:29:50;;;;;;;12.30;7.10;;;;;;;;;;5026485;28;20045;-74
2023/01/28 08:32:35;;;;;;;14.10;7.35;;;;;;;;;;5014261;28;20107;-70
2023/01/28 08:35:20;;;;;;;12.25;7.88;;;;;;;;;;5011700;28;20083;-70
2023/01/28 08:38:06;;;;;;;12.65;7.38;;;;;;;;;;5024237;28;20075;-72
2023/01/28 08:40:54;;;;;;;12.55;7.22;;;;;;;;;;5035105;28;20051;-71
2023/01/28 08:43:39;;;;;;;15.27;8.20;;;;;;;;;;5041698;28;20160;-71
2023/01/28 08:46:24;;;;;;;12.23;7.40;;;;;;;;;;5022483;28;20025;-74
2023/01/28 08:49:10;;;;;;;16.35;8.40;;;;;;;;;;5018545;28;20037;-79
2023/01/28 08:51:55;;;;;;;15.68;8.75;;;;;;;;;;5033721;28;20083;-72
2023/01/28 08:54:40;;;;;;;16.13;8.27;;;;;;;;;;5021257;28;20092;-73
2023/01/28 08:57:25;;;;;;;14.82;7.97;;;;;;;;;;5023576;28;20033;-72
2023/01/28 09:00:11;;;;;;;13.13;8.45;;;;;;;;;;5023224;28;20091;-72
2023/01/28 09:02:56;;;;;;;11.93;7.53;;;;;;;;;;5025739;28;20061;-71
2023/01/28 09:05:41;;;;;;;15.32;8.75;;;;;;;;;;5026763;28;20087;-75
2023/01/28 09:08:27;;;;;;;12.93;7.97;;;;;;;;;;5015587;28;20468;-71
2023/01/28 09:11:12;;;;;;;15.02;7.88;;;;;;;;;;5025659;28;20072;-70
2023/01/28 09:13:57;;;;;;;13.27;7.15;;;;;;;;;;5018166;28;20514;-70
2023/01/28 09:16:42;;;;;;;16.48;8.93;;;;;;;;;;5024519;28;20553;-70
2023/01/28 09:19:28;;;;;;;15.50;9.70;;;;;;;;;;5020922;28;20033;-71
2023/01/28 09:22:13;;;;;;;437.25;51.10;;;;;;;;;;5026191;28;20025;-69
2023/01/28 09:24:58;;;;;;;17.80;9.55;;;;;;;;;;5024507;28;20067;-75
2023/01/28 09:27:44;;;;;;;17.77;9.55;;;;;;;;;;5031635;28;20172;-71
2023/01/28 09:30:29;;;;;;;13.82;7.65;;;;;;;;;;5020091;28;20035;-71
2023/01/28 09:33:14;;;;;;;14.70;7.95;;;;;;;;;;5026704;28;20033;-73
2023/01/28 09:36:00;;;;;;;15.13;9.25;;;;;;;;;;5018655;28;20049;-73
2023/01/28 09:38:46;;;;;;;16.67;9.73;;;;;;;;;;5022778;28;20064;-77
2023/01/28 09:41:52;;;;;;;16.38;8.82;;;;;;;;;;5019919;28;20240;-68
2023/01/28 09:44:55;;;;;;;14.82;8.48;;;;;;;;;;5024647;28;20135;-73
2023/01/28 09:47:44;;;;;;;13.45;8.35;;;;;;;;;;5024631;28;20730;-81
2023/01/28 09:50:31;;;;;;;16.23;9.80;;;;;;;;;;5027744;28;20159;-80
2023/01/28 09:53:30;;;;;;;17.20;9.10;;;;;;;;;;5029287;28;20125;-80
2023/01/28 09:56:24;;;;;;;17.25;9.45;;;;;;;;;;5027335;28;20025;-78
2023/01/28 09:59:18;;;;;;;17.15;8.77;;;;;;;;;;5032190;28;20052;-79
2023/01/28 10:02:03;;;;;;;15.05;8.98;;;;;;;;;;5031623;28;20033;-74
2023/01/28 10:04:56;;;;;;;15.98;9.27;;;;;;;;;;5033518;28;20558;-72
2023/01/28 10:07:46;;;;;;;17.98;9.68;;;;;;;;;;5039519;28;20029;-68
2023/01/28 10:10:42;;;;;;;16.23;9.13;;;;;;;;;;5031669;28;20041;-69
2023/01/28 10:13:36;;;;;;;16.35;8.60;;;;;;;;;;5027895;28;20489;-70
2023/01/28 10:16:21;;;;;;;16.77;9.60;;;;;;;;;;5016212;28;20087;-71
2023/01/28 10:19:15;;;;;;;17.00;9.02;;;;;;;;;;5031502;28;20083;-69
2023/01/28 10:22:03;;;;;;;17.55;9.63;;;;;;;;;;5032965;23;20778;-71
2023/01/28 10:24:53;;;;;;;16.13;9.45;;;;;;;;;;5044302;28;20047;-71
2023/01/28 10:27:39;;;;;;;16.85;10.02;;;;;;;;;;5052234;28;20031;-71
2023/01/28 10:30:25;;;;;;;17.65;10.65;;;;;;;;;;5046275;28;20055;-71
2023/01/28 10:33:20;;;;;;;17.15;9.57;;;;;;;;;;5050827;28;20044;-73
2023/01/28 10:36:06;;;;;;;17.63;9.15;;;;;;;;;;5063203;28;20039;-76
2023/01/28 10:38:51;;;;;;;13.85;8.35;;;;;;;;;;5052306;28;20273;-67
2023/01/28 10:41:36;;;;;;;15.98;8.65;;;;;;;;;;5050315;28;20082;-74
2023/01/28 10:44:33;;;;;;;16.88;9.50;;;;;;;;;;5062773;28;20044;-75
2023/01/28 10:47:26;;;;;;;16.55;9.88;;;;;;;;;;5048824;28;20036;-75
2023/01/28 10:50:17;;;;;;;15.13;8.45;;;;;;;;;;5037365;28;20045;-75
2023/01/28 10:53:05;;;;;;;16.00;9.25;;;;;;;;;;5049994;28;20028;-77
2023/01/28 10:55:53;;;;;;;15.77;8.70;;;;;;;;;;5051773;28;20178;-74
2023/01/28 10:59:07;;;;;;;17.60;10.25;;;;;;;;;;5058714;28;20586;-77
2023/01/28 11:01:55;;;;;;;16.00;9.43;;;;;;;;;;5041432;28;20056;-75
2023/01/28 11:04:40;;;;;;;15.50;8.82;;;;;;;;;;5028903;28;20029;-77
2023/01/28 11:07:25;;;;;;;16.00;9.25;;;;;;;;;;5053030;28;20479;-78
2023/01/28 11:10:31;;;;;;;17.52;10.00;;;;;;;;;;5046410;28;20051;-78
2023/01/28 11:13:21;;;;;;;17.02;8.90;;;;;;;;;;5048138;28;20024;-74
2023/01/28 11:16:13;;;;;;;15.23;8.98;;;;;;;;;;5059332;28;20036;-76
2023/01/28 11:19:01;;;;;;;17.48;9.20;;;;;;;;;;5048021;28;20060;-75
2023/01/28 11:21:54;;;;;;;15.40;8.68;;;;;;;;;;5028655;28;20029;-78
2023/01/28 11:24:41;;;;;;;16.48;9.68;;;;;;;;;;5048095;28;20039;-76
2023/01/28 11:27:29;;;;;;;16.83;9.07;;;;;;;;;;5062647;28;20107;-76
2023/01/28 11:30:25;;;;;;;17.42;9.32;;;;;;;;;;5041265;28;20671;-75
2023/01/28 11:33:13;;;;;;;15.93;9.07;;;;;;;;;;5049615;28;20182;-73
2023/01/28 11:36:25;;;;;;;16.30;8.75;;;;;;;;;;5066040;28;20052;-74
2023/01/28 11:39:23;;;;;;;15.93;9.95;;;;;;;;;;5047839;28;20033;-75
2023/01/28 11:42:18;;;;;;;18.08;10.15;;;;;;;;;;5043042;28;20468;-75
2023/01/28 11:45:08;;;;;;;16.60;9.77;;;;;;;;;;5052100;28;20505;-75
2023/01/28 11:47:53;;;;;;;17.83;9.90;;;;;;;;;;5047263;28;20029;-78
2023/01/28 11:50:45;;;;;;;15.45;9.48;;;;;;;;;;5050345;28;20067;-80
2023/01/28 11:53:39;;;;;;;17.02;9.90;;;;;;;;;;5046925;28;20031;-75
2023/01/28 11:56:36;;;;;;;17.17;10.18;;;;;;;;;;5046979;28;20040;-75
2023/01/28 11:59:27;;;;;;;19.02;9.52;;;;;;;;;;5047084;28;20291;-77
2023/01/28 12:02:12;;;;;;;16.75;9.63;;;;;;;;;;5046746;28;20036;-77
2023/01/28 12:05:15;;;;;;;14.85;8.90;;;;;;;;;;5033679;28;20083;-76
2023/01/28 12:08:00;;;;;;;18.55;9.98;;;;;;;;;;5045023;28;20053;-78
2023/01/28 12:11:12;;;;;;;17.52;10.98;;;;;;;;;;5042484;28;20037;-73
2023/01/28 12:14:09;;;;;;;21.73;11.23;;;;;;;;;;5056036;28;20122;-78
2023/01/28 12:16:54;;;;;;;21.50;9.77;;;;;;;;;;5054180;28;20483;-76
2023/01/28 12:19:58;;;;;;;19.63;10.07;;;;;;;;;;5061154;28;20063;-75
2023/01/28 12:22:53;;;;;;;17.38;9.80;;;;;;;;;;5045466;28;20049;-75
2023/01/28 12:25:46;;;;;;;16.15;8.98;;;;;;;;;;5047692;28;20114;-74
2023/01/28 12:28:34;;;;;;;18.58;9.98;;;;;;;;;;5044850;28;20033;-82
2023/01/28 12:31:39;;;;;;;17.73;9.68;;;;;;;;;;5037931;28;20099;-78
2023/01/28 12:34:49;;;;;;;17.17;9.50;;;;;;;;;;5030672;28;20024;-76
2023/01/28 12:37:38;;;;;;;16.02;9.35;;;;;;;;;;5045659;28;20094;-76
2023/01/28 12:40:31;;;;;;;18.45;9.75;;;;;;;;;;5056832;28;20025;-76
2023/01/28 12:43:23;;;;;;;17.65;9.95;;;;;;;;;;5061117;28;20020;-76
2023/01/28 12:46:17;;;;;;;16.40;9.15;;;;;;;;;;5032424;28;20033;-72
2023/01/28 12:49:29;;;;;;;17.75;9.75;;;;;;;;;;5051611;28;20546;-68
2023/01/28 12:52:18;;;;;;;18.15;10.48;;;;;;;;;;5043194;28;20025;-67
2023/01/28 12:55:10;;;;;;;17.93;9.80;;;;;;;;;;5060982;28;20039;-68
2023/01/28 12:57:57;;;;;;;18.80;9.85;;;;;;;;;;5045508;28;20036;-70
2023/01/28 13:00:47;;;;;;;15.57;9.65;;;;;;;;;;5042458;28;20031;-68
2023/01/28 13:03:50;;;;;;;16.45;9.82;;;;;;;;;;5055029;28;20028;-71
2023/01/28 13:07:01;;;;;;;18.98;9.55;;;;;;;;;;5046673;28;20044;-70
2023/01/28 13:09:50;;;;;;;19.00;10.30;;;;;;;;;;5031667;28;20052;-62
2023/01/28 13:12:37;;;;;;;18.75;9.70;;;;;;;;;;5044162;28;20474;-73
2023/01/28 13:15:23;;;;;;;16.05;9.05;;;;;;;;;;5045020;28;20029;-71
2023/01/28 13:18:29;;;;;;;14.18;7.78;;;;;;;;;;5061659;28;20033;-77
2023/01/28 13:21:14;;;;;;;15.93;9.48;;;;;;;;;;5038670;28;20392;-75
2023/01/28 13:24:08;;;;;;;17.88;8.82;;;;;;;;;;5046555;28;20076;-78
2023/01/28 13:26:54;;;;;;;16.67;8.75;;;;;;;;;;5041323;28;20025;-73
2023/01/28 13:29:40;;;;;;;12.80;7.57;;;;;;;;;;5045892;28;20641;-69
2023/01/28 13:32:33;;;;;;;14.32;7.05;;;;;;;;;;5043310;28;20060;-72
2023/01/28 13:35:33;;;;;;;11.23;5.93;;;;;;;;;;5048000;28;20021;-72
2023/01/28 13:38:19;;;;;;;11.90;5.90;;;;;;;;;;5043765;28;20040;-72
2023/01/28 13:41:05;;;;;;;10.55;5.18;;;;;;;;;;5045581;28;20112;-70
2023/01/28 13:43:50;;;;;;;10.13;5.45;;;;;;;;;;5042162;28;20065;-70
2023/01/28 13:46:37;;;;;;;11.95;6.20;;;;;;;;;;5031203;28;20024;-71
2023/01/28 13:49:31;;;;;;;11.73;5.93;;;;;;;;;;5044421;28;20512;-71
2023/01/28 13:52:21;;;;;;;11.52;6.63;;;;;;;;;;5063517;28;20024;-72
2023/01/28 13:55:10;;;;;;;12.20;5.15;;;;;;;;;;5042754;28;20630;-72
2023/01/28 13:58:01;;;;;;;14.70;6.57;;;;;;;;;;5042934;28;20087;-70
2023/01/28 14:00:46;;;;;;;12.00;6.63;;;;;;;;;;5045023;28;20388;-77
2023/01/28 14:03:34;;;;;;;11.85;6.90;;;;;;;;;;5044164;28;20047;-73
2023/01/28 14:06:26;;;;;;;13.10;6.30;;;;;;;;;;5043573;28;20025;-74
2023/01/28 14:09:17;;;;;;;12.43;6.53;;;;;;;;;;5043918;28;20036;-73
2023/01/28 14:12:15;;;;;;;14.48;6.63;;;;;;;;;;5044036;28;20588;-72
2023/01/28 14:15:12;;;;;;;11.15;5.75;;;;;;;;;;5040380;28;20593;-72
2023/01/28 14:17:58;;;;;;;13.25;7.03;;;;;;;;;;5046200;28;20041;-71
2023/01/28 14:20:44;;;;;;;11.65;6.68;;;;;;;;;;5034372;28;20062;-69
2023/01/28 14:23:31;;;;;;;12.80;7.28;;;;;;;;;;5046633;28;20285;-70
2023/01/28 14:26:16;;;;;;;12.93;6.28;;;;;;;;;;5046631;28;20048;-66
2023/01/28 14:29:17;;;;;;;14.48;7.50;;;;;;;;;;5042350;28;20041;-67
2023/01/28 14:32:10;;;;;;;12.90;6.57;;;;;;;;;;5035230;28;20040;-67
2023/01/28 14:34:57;;;;;;;13.00;6.68;;;;;;;;;;5046209;28;20098;-66
2023/01/28 14:37:43;;;;;;;15.15;6.88;;;;;;;;;;5044107;28;20036;-76
2023/01/28 14:40:29;;;;;;;11.70;6.30;;;;;;;;;;5048838;28;20025;-68
2023/01/28 14:43:16;;;;;;;12.40;6.80;;;;;;;;;;5047671;28;20035;-67
2023/01/28 14:46:25;;;;;;;15.07;7.75;;;;;;;;;;5051465;28;20024;-65
2023/01/28 14:49:10;;;;;;;12.25;6.70;;;;;;;;;;5006911;28;20107;-68
2023/01/28 14:52:05;;;;;;;12.68;7.28;;;;;;;;;;5044654;28;20041;-67
2023/01/28 14:54:53;;;;;;;11.65;6.82;;;;;;;;;;5054238;28;20029;-75
2023/01/28 14:57:43;;;;;;;10.18;6.63;;;;;;;;;;5042677;28;20025;-70
2023/01/28 15:00:29;;;;;;;13.18;7.85;;;;;;;;;;5059805;28;20060;-69
2023/01/28 15:03:18;;;;;;;11.98;6.22;;;;;;;;;;5028724;28;20495;-68
2023/01/28 15:06:05;;;;;;;8.75;4.93;;;;;;;;;;5049143;28;20029;-68
2023/01/28 15:09:04;;;;;;;11.25;6.05;;;;;;;;;;5047191;28;20084;-68
2023/01/28 15:11:50;;;;;;;10.50;5.47;;;;;;;;;;5048568;28;20078;-72
2023/01/28 15:14:36;;;;;;;9.55;5.82;;;;;;;;;;5050916;28;20135;-69
2023/01/28 15:17:25;;;;;;;10.57;5.80;;;;;;;;;;5047674;28;20033;-72
2023/01/28 15:20:15;;;;;;;10.73;5.82;;;;;;;;;;5047856;28;20033;-72
2023/01/28 15:23:01;;;;;;;11.45;6.40;;;;;;;;;;5062687;28;20041;-71
2023/01/28 15:25:46;;;;;;;9.18;5.35;;;;;;;;;;5036965;28;20048;-73
2023/01/28 15:28:33;;;;;;;10.30;5.93;;;;;;;;;;5057075;28;20096;-72
2023/01/28 15:31:18;;;;;;;11.98;5.38;;;;;;;;;;5056137;28;20036;-77
2023/01/28 15:34:28;;;;;;;9.57;6.07;;;;;;;;;;5054336;28;20115;-67
2023/01/28 15:37:15;;;;;;;9.35;5.55;;;;;;;;;;5049930;28;20024;-76
2023/01/28 15:40:05;;;;;;;11.07;5.80;;;;;;;;;;5043323;28;20036;-76
2023/01/28 15:42:51;;;;;;;9.63;5.68;;;;;;;;;;5053798;28;20040;-76
2023/01/28 15:45:36;;;;;;;9.15;4.78;;;;;;;;;;5043949;28;20047;-77
2023/01/28 15:48:23;;;;;;;8.75;5.18;;;;;;;;;;5034584;28;20160;-75
2023/01/28 15:51:17;;;;;;;8.88;5.15;;;;;;;;;;5054451;28;21076;-77
2023/01/28 15:54:04;;;;;;;7.63;4.93;;;;;;;;;;5040066;28;20036;-76
2023/01/28 15:56:49;;;;;;;13.07;5.80;;;;;;;;;;5046296;28;20041;-77
2023/01/28 15:59:34;;;;;;;10.00;5.40;;;;;;;;;;5057726;28;20048;-78
2023/01/28 16:02:21;;;;;;;10.77;5.82;;;;;;;;;;5056678;28;20055;-76
2023/01/28 16:05:09;;;;;;;9.05;5.55;;;;;;;;;;5051377;28;20472;-76
2023/01/28 16:07:56;;;;;;;9.70;5.40;;;;;;;;;;5035868;28;20488;-72
2023/01/28 16:10:41;;;;;;;9.35;5.80;;;;;;;;;;5046170;28;20051;-80
2023/01/28 16:13:28;;;;;;;9.95;4.90;;;;;;;;;;5054143;28;20027;-81
2023/01/28 16:16:13;;;;;;;9.50;5.13;;;;;;;;;;5032753;28;20025;-81
2023/01/28 16:18:59;;;;;;;8.20;5.28;;;;;;;;;;5062734;28;20440;-82
2023/01/28 16:21:45;;;;;;;7.75;4.55;;;;;;;;;;5048939;28;20466;-82
2023/01/28 16:24:31;;;;;;;8.15;5.30;;;;;;;;;;5045917;28;20102;-78
2023/01/28 16:27:19;;;;;;;9.30;5.72;;;;;;;;;;5042541;28;20029;-76
2023/01/28 16:30:05;;;;;;;7.80;4.57;;;;;;;;;;5032078;28;20687;-70
2023/01/28 16:32:50;;;;;;;10.02;5.55;;;;;;;;;;5054622;28;20483;-70
2023/01/28 16:35:35;;;;;;;9.95;5.30;;;;;;;;;;5049961;28;20028;-71
2023/01/28 16:38:20;;;;;;;11.65;5.85;;;;;;;;;;5045011;28;20032;-72
2023/01/28 16:41:14;;;;;;;7.80;4.32;;;;;;;;;;5043590;28;20063;-73
2023/01/28 16:44:04;;;;;;;11.57;5.45;;;;;;;;;;5037439;28;20029;-72
2023/01/28 16:46:49;;;;;;;;;;;;;;;;;;5052266;28;20037;-72
2023/01/28 16:49:34;;;;;;;9.40;5.32;;;;;;;;;;5038086;28;20063;-70
2023/01/28 16:52:19;;;;;;;8.52;4.68;;;;;;;;;;5068786;28;20115;-72
2023/01/28 16:55:05;;;;;;;8.93;5.55;;;;;;;;;;5032621;28;20048;-71
2023/01/28 16:57:52;;;;;;;11.30;4.95;;;;;;;;;;5045793;28;20384;-70
2023/01/28 17:00:37;;;;;;;10.88;5.00;;;;;;;;;;5043407;28;20411;-72
2023/01/28 17:03:23;;;;;;;8.38;5.13;;;;;;;;;;5051415;28;20108;-77
2023/01/28 17:06:11;;;;;;;7.75;4.25;;;;;;;;;;5056254;28;20030;-76
2023/01/28 17:08:56;;;;;;;7.18;4.18;;;;;;;;;;5052232;28;20437;-79